Time;durP1;ratioP1;P1;durP2;ratioP2;P2;SDS_P1;SDS_P2;PMS_P1;PMS_P2;Temp;Humidity;BMP_temperature;BMP_pressure;BME280_temperature;BME280_humidity;BME280_pressure;Samples;Min_cycle;Max_cycle;Signal;HPM_P1;HPM_P2
2021/12/28 00:00:05;;;;;;;;;;;8.80;99.90;;;;;;5135225;27;20342;-75
2021/12/28 00:02:31;;;;;;;;;;;8.80;99.90;;;;;;5135266;27;19915;-77
2021/12/28 00:04:57;;;;;;;;;;;8.80;99.90;;;;;;5135399;27;19911;-76
2021/12/28 00:07:22;;;;;;;;;;;8.80;99.90;;;;;;5135306;27;20360;-75
2021/12/28 00:09:48;;;;;;;;;;;8.80;99.90;;;;;;5134670;27;20103;-76
2021/12/28 00:12:13;;;;;;;;;;;8.80;99.90;;;;;;5116888;27;19923;-76
2021/12/28 00:14:48;;;;;;;;;;;8.80;99.90;;;;;;5134358;27;19908;-76
2021/12/28 00:19:58;;;;;;;;;;;8.80;99.90;;;;;;5134861;27;20379;-76
2021/12/28 00:22:24;;;;;;;;;;;8.80;99.90;;;;;;5116847;27;19908;-77
2021/12/28 00:24:49;;;;;;;;;;;8.80;99.90;;;;;;5133946;27;20378;-76
2021/12/28 00:27:15;;;;;;;;;;;8.80;99.90;;;;;;5135099;27;19947;-76
2021/12/28 00:29:42;;;;;;;;;;;8.70;99.90;;;;;;5134090;27;20375;-76
2021/12/28 00:32:08;;;;;;;;;;;8.70;99.90;;;;;;5134455;27;20415;-76
2021/12/28 00:34:35;;;;;;;;;;;8.70;99.90;;;;;;5133879;27;19908;-76
2021/12/28 00:37:01;;;;;;;;;;;8.70;99.90;;;;;;5121357;27;20313;-76
2021/12/28 00:39:27;;;;;;;;;;;8.70;99.90;;;;;;5154441;27;20283;-75
2021/12/28 00:41:52;;;;;;;;;;;8.80;99.90;;;;;;5153784;27;19904;-76
2021/12/28 00:44:18;;;;;;;;;;;8.70;99.90;;;;;;5154316;27;19907;-75
2021/12/28 00:46:44;;;;;;;;;;;8.80;99.90;;;;;;5118396;27;20356;-75
2021/12/28 00:49:10;;;;;;;;;;;8.70;99.90;;;;;;5135164;27;20306;-77
2021/12/28 00:51:37;;;;;;;;;;;8.80;99.90;;;;;;5133950;27;19919;-76
2021/12/28 00:54:03;;;;;;;;;;;8.70;99.90;;;;;;5134576;27;19907;-77
2021/12/28 00:56:28;;;;;;;;;;;8.70;99.90;;;;;;5134329;27;20252;-76
2021/12/28 00:58:54;;;;;;;;;;;8.70;99.90;;;;;;5115039;27;19916;-77
2021/12/28 01:01:20;;;;;;;;;;;8.70;99.90;;;;;;5134214;27;19912;-76
2021/12/28 01:03:46;;;;;;;;;;;8.70;99.90;;;;;;5133505;27;19914;-75
2021/12/28 01:06:11;;;;;;;;;;;8.60;99.90;;;;;;5134280;27;19908;-76
2021/12/28 01:08:38;;;;;;;;;;;8.60;99.90;;;;;;5133229;27;19911;-77
2021/12/28 01:11:05;;;;;;;;;;;8.60;99.90;;;;;;5134291;27;19963;-77
2021/12/28 01:13:31;;;;;;;;;;;8.70;99.90;;;;;;5133910;27;19915;-76
2021/12/28 01:15:56;;;;;;;;;;;8.70;99.90;;;;;;5133338;27;19918;-76
2021/12/28 01:18:23;;;;;;;;;;;8.60;99.90;;;;;;5133857;27;20002;-76
2021/12/28 01:20:49;;;;;;;;;;;8.60;99.90;;;;;;5132814;27;19918;-75
2021/12/28 01:23:14;;;;;;;;;;;8.70;99.90;;;;;;5133868;27;19908;-75
2021/12/28 01:25:40;;;;;;;;;;;8.60;99.90;;;;;;5133273;27;19908;-75
2021/12/28 01:28:07;;;;;;;;;;;8.60;99.90;;;;;;5134108;27;19912;-75
2021/12/28 01:30:33;;;;;;;;;;;8.60;99.90;;;;;;5115648;27;19934;-75
2021/12/28 01:33:00;;;;;;;;;;;8.60;99.90;;;;;;5133961;27;20357;-74
2021/12/28 01:35:27;;;;;;;;;;;8.60;99.90;;;;;;5115887;27;20249;-74
2021/12/28 01:37:52;;;;;;;;;;;8.60;99.90;;;;;;5133486;27;19907;-74
2021/12/28 01:40:20;;;;;;;;;;;8.60;99.90;;;;;;5134338;27;19908;-74
2021/12/28 01:42:58;;;;;;;;;;;8.70;99.90;;;;;;5115125;27;20361;-74
2021/12/28 01:45:33;;;;;;;;;;;8.70;99.90;;;;;;5134231;27;19911;-74
2021/12/28 01:47:59;;;;;;;;;;;8.70;99.90;;;;;;5133261;27;19914;-75
2021/12/28 01:50:24;;;;;;;;;;;8.70;99.90;;;;;;5115504;27;19915;-74
2021/12/28 01:52:50;;;;;;;;;;;8.70;99.90;;;;;;5133460;27;19920;-74
2021/12/28 01:55:15;;;;;;;;;;;8.70;99.90;;;;;;5133474;27;19907;-75
2021/12/28 01:57:43;;;;;;;;;;;8.60;99.90;;;;;;5133321;27;19951;-75
2021/12/28 02:00:09;;;;;;;;;;;8.60;99.90;;;;;;5133812;27;19908;-75
2021/12/28 02:02:34;;;;;;;;;;;8.60;99.90;;;;;;5114881;27;19952;-75
2021/12/28 02:05:00;;;;;;;;;;;8.60;99.90;;;;;;5133428;27;19911;-75
2021/12/28 02:07:25;;;;;;;;;;;8.60;99.90;;;;;;5115666;27;20019;-75
2021/12/28 02:09:51;;;;;;;;;;;8.60;99.90;;;;;;5132774;27;20313;-75
2021/12/28 02:12:17;;;;;;;;;;;8.60;99.90;;;;;;5133756;27;19923;-75
2021/12/28 02:14:44;;;;;;;;;;;8.60;99.90;;;;;;5132668;27;19961;-75
2021/12/28 02:17:10;;;;;;;;;;;8.60;99.90;;;;;;5133605;27;19908;-75
2021/12/28 02:19:36;;;;;;;;;;;8.70;99.90;;;;;;5133214;27;20029;-75
2021/12/28 02:22:02;;;;;;;;;;;8.70;99.90;;;;;;5133615;27;19912;-75
2021/12/28 02:24:27;;;;;;;;;;;8.70;99.90;;;;;;5133312;27;20280;-75
2021/12/28 02:26:53;;;;;;;;;;;8.60;99.90;;;;;;5144813;27;19908;-74
2021/12/28 02:29:19;;;;;;;;;;;8.70;99.90;;;;;;5147709;27;19907;-74
2021/12/28 02:31:45;;;;;;;;;;;8.70;99.90;;;;;;5138043;27;19919;-75
2021/12/28 02:34:11;;;;;;;;;;;8.60;99.90;;;;;;5133617;27;20394;-75
2021/12/28 02:36:36;;;;;;;;;;;8.70;99.90;;;;;;5133322;28;19911;-74
2021/12/28 02:39:02;;;;;;;;;;;8.60;99.90;;;;;;5132944;28;19907;-75
2021/12/28 02:41:28;;;;;;;;;;;8.70;99.90;;;;;;5133526;28;19908;-75
2021/12/28 02:44:01;;;;;;;;;;;8.70;99.90;;;;;;5132302;28;19908;-74
2021/12/28 02:46:27;;;;;;;;;;;8.70;99.90;;;;;;5133275;28;19911;-75
2021/12/28 02:48:52;;;;;;;;;;;8.60;99.90;;;;;;5132362;28;19915;-75
2021/12/28 02:51:18;;;;;;;;;;;8.70;99.90;;;;;;5132893;28;19919;-75
2021/12/28 02:53:44;;;;;;;;;;;8.70;99.90;;;;;;5132406;28;19915;-76
2021/12/28 02:56:10;;;;;;;;;;;8.70;99.90;;;;;;5133253;28;19914;-75
2021/12/28 02:58:37;;;;;;;;;;;8.70;99.90;;;;;;5133220;28;20336;-75
2021/12/28 03:01:29;;;;;;;;;;;8.60;99.90;;;;;;5132389;28;20364;-75
2021/12/28 03:03:58;;;;;;;;;;;8.70;99.90;;;;;;5127130;28;19930;-75
2021/12/28 03:06:24;;;;;;;;;;;8.70;99.90;;;;;;5133181;27;19912;-75
2021/12/28 03:08:53;;;;;;;;;;;8.70;99.90;;;;;;5136297;27;19960;-75
2021/12/28 03:11:18;;;;;;;;;;;8.70;99.90;;;;;;5137195;27;19911;-77
2021/12/28 03:13:46;;;;;;;;;;;8.70;99.90;;;;;;5136177;27;19912;-78
2021/12/28 03:16:12;;;;;;;;;;;8.70;99.90;;;;;;5137250;27;19931;-84
2021/12/28 03:18:37;;;;;;;;;;;8.70;99.90;;;;;;5118499;27;19907;-83
2021/12/28 03:21:04;;;;;;;;;;;8.70;99.90;;;;;;5117611;27;19912;-83
2021/12/28 03:23:30;;;;;;;;;;;8.70;99.90;;;;;;5118673;27;20340;-84
2021/12/28 03:25:56;;;;;;;;;;;8.60;99.90;;;;;;5117809;27;20263;-85
2021/12/28 03:28:23;;;;;;;;;;;8.60;99.90;;;;;;5118508;27;19912;-84
2021/12/28 03:30:49;;;;;;;;;;;8.70;99.90;;;;;;5117432;27;19920;-84
2021/12/28 03:33:15;;;;;;;;;;;8.70;99.90;;;;;;5136661;27;19911;-85
2021/12/28 03:35:41;;;;;;;;;;;8.70;99.90;;;;;;5136614;27;19907;-84
2021/12/28 03:38:06;;;;;;;;;;;8.70;99.90;;;;;;5136533;27;19994;-83
2021/12/28 03:40:33;;;;;;;;;;;8.70;99.90;;;;;;5136702;27;20260;-79
2021/12/28 03:42:58;;;;;;;;;;;8.60;99.90;;;;;;5135757;27;20324;-81
2021/12/28 03:45:24;;;;;;;;;;;8.60;99.90;;;;;;5136414;27;19991;-80
2021/12/28 03:47:50;;;;;;;;;;;8.60;99.90;;;;;;5135779;27;20003;-78
2021/12/28 03:50:18;;;;;;;;;;;8.60;99.90;;;;;;5136279;27;20009;-80
2021/12/28 03:52:44;;;;;;;;;;;8.60;99.90;;;;;;5117308;27;20003;-83
2021/12/28 03:55:10;;;;;;;;;;;8.60;99.90;;;;;;5136375;27;19908;-85
2021/12/28 03:57:39;;;;;;;;;;;8.60;99.90;;;;;;5136462;27;19976;-85
2021/12/28 04:00:08;;;;;;;;;;;8.60;99.90;;;;;;5116959;27;19912;-84
2021/12/28 04:02:34;;;;;;;;;;;8.60;99.90;;;;;;5136383;27;19908;-83
2021/12/28 04:05:00;;;;;;;;;;;8.60;99.90;;;;;;5134986;27;19976;-84
2021/12/28 04:07:25;;;;;;;;;;;8.60;99.90;;;;;;5121785;27;19908;-84
2021/12/28 04:12:17;;;;;;;;;;;8.50;99.90;;;;;;5136690;27;19919;-85
2021/12/28 04:14:43;;;;;;;;;;;8.50;99.90;;;;;;5136587;27;19907;-82
2021/12/28 04:17:08;;;;;;;;;;;8.50;99.90;;;;;;5117601;27;19907;-84
2021/12/28 04:19:37;;;;;;;;;;;8.50;99.90;;;;;;5117920;27;19907;-84
2021/12/28 04:22:03;;;;;;;;;;;8.50;99.90;;;;;;5135075;27;19908;-84
2021/12/28 04:24:28;;;;;;;;;;;8.60;99.90;;;;;;5117504;27;19915;-85
2021/12/28 04:26:54;;;;;;;;;;;8.60;99.90;;;;;;5134811;27;19972;-84
2021/12/28 04:29:20;;;;;;;;;;;8.60;99.90;;;;;;5135661;27;20276;-85
2021/12/28 04:31:45;;;;;;;;;;;8.60;99.90;;;;;;5135242;27;19915;-82
2021/12/28 04:34:11;;;;;;;;;;;8.60;99.90;;;;;;5116849;27;20359;-85
2021/12/28 04:36:37;;;;;;;;;;;8.60;99.90;;;;;;5135882;27;19964;-83
2021/12/28 04:39:04;;;;;;;;;;;8.60;99.90;;;;;;5134914;27;20280;-83
2021/12/28 04:41:29;;;;;;;;;;;8.60;99.90;;;;;;5135553;27;19915;-83
2021/12/28 04:43:55;;;;;;;;;;;8.60;99.90;;;;;;5134525;27;20374;-84
2021/12/28 04:46:20;;;;;;;;;;;8.60;99.90;;;;;;5135444;27;19908;-83
2021/12/28 04:48:46;;;;;;;;;;;8.60;99.90;;;;;;5134984;27;20002;-83
2021/12/28 04:51:12;;;;;;;;;;;8.60;99.90;;;;;;5134539;27;19954;-84
2021/12/28 04:53:37;;;;;;;;;;;8.60;99.90;;;;;;5135269;27;19952;-83
2021/12/28 04:56:03;;;;;;;;;;;8.60;99.90;;;;;;5116027;27;19908;-83
2021/12/28 04:58:29;;;;;;;;;;;8.60;99.90;;;;;;5116707;27;20321;-83
2021/12/28 05:00:55;;;;;;;;;;;8.60;99.90;;;;;;5134695;27;19996;-84
2021/12/28 05:03:21;;;;;;;;;;;8.60;99.90;;;;;;5116485;27;19942;-84
2021/12/28 05:05:48;;;;;;;;;;;8.60;99.90;;;;;;5134998;27;19911;-83
2021/12/28 05:08:14;;;;;;;;;;;8.60;99.90;;;;;;5116259;27;19907;-83
2021/12/28 05:10:41;;;;;;;;;;;8.60;99.90;;;;;;5134830;27;20034;-83
2021/12/28 05:13:07;;;;;;;;;;;8.60;99.90;;;;;;5133962;27;20152;-83
2021/12/28 05:15:32;;;;;;;;;;;8.60;99.90;;;;;;5135325;27;20237;-83
2021/12/28 05:17:58;;;;;;;;;;;8.60;99.90;;;;;;5134012;27;19952;-83
2021/12/28 05:20:24;;;;;;;;;;;8.60;99.90;;;;;;5135047;27;19907;-84
2021/12/28 05:22:49;;;;;;;;;;;8.60;99.90;;;;;;5134404;27;19908;-82
2021/12/28 05:25:15;;;;;;;;;;;8.50;99.90;;;;;;5134288;27;20001;-83
2021/12/28 05:27:41;;;;;;;;;;;8.60;99.90;;;;;;5135070;27;20016;-85
2021/12/28 05:30:08;;;;;;;;;;;8.60;99.90;;;;;;5114752;27;19911;-85
2021/12/28 05:32:34;;;;;;;;;;;8.50;99.90;;;;;;5116041;27;19911;-84
2021/12/28 05:34:59;;;;;;;;;;;8.50;99.90;;;;;;5115007;27;19907;-85
2021/12/28 05:37:25;;;;;;;;;;;8.60;99.90;;;;;;5134180;27;19915;-85
2021/12/28 05:39:50;;;;;;;;;;;8.60;99.90;;;;;;5133948;27;20340;-83
2021/12/28 05:42:16;;;;;;;;;;;8.60;99.90;;;;;;5134348;27;19954;-85
2021/12/28 05:44:42;;;;;;;;;;;8.60;99.90;;;;;;5133987;27;19907;-83
2021/12/28 05:47:07;;;;;;;;;;;8.50;99.90;;;;;;5133776;27;19908;-83
2021/12/28 05:49:33;;;;;;;;;;;8.60;99.90;;;;;;5115547;27;20290;-83
2021/12/28 05:51:59;;;;;;;;;;;8.60;99.90;;;;;;5133050;27;19919;-83
2021/12/28 05:54:24;;;;;;;;;;;8.60;99.90;;;;;;5134383;27;19908;-83
2021/12/28 05:56:50;;;;;;;;;;;8.60;99.90;;;;;;5132713;27;19907;-81
2021/12/28 05:59:16;;;;;;;;;;;8.60;99.90;;;;;;5115293;27;19907;-83
2021/12/28 06:01:41;;;;;;;;;;;8.60;99.90;;;;;;5133921;27;19907;-82
2021/12/28 06:04:07;;;;;;;;;;;8.60;99.90;;;;;;5133036;27;20272;-82
2021/12/28 06:06:33;;;;;;;;;;;8.60;99.90;;;;;;5133870;27;19914;-79
2021/12/28 06:08:59;;;;;;;;;;;8.60;99.90;;;;;;5133166;27;20009;-80
2021/12/28 06:11:25;;;;;;;;;;;8.60;99.90;;;;;;5133794;27;19911;-82
2021/12/28 06:13:50;;;;;;;;;;;8.60;99.90;;;;;;5133626;27;19911;-81
2021/12/28 06:16:16;;;;;;;;;;;8.50;99.90;;;;;;5132824;27;20267;-81
2021/12/28 06:18:42;;;;;;;;;;;8.50;99.90;;;;;;5133724;27;20283;-82
2021/12/28 06:21:08;;;;;;;;;;;8.50;99.90;;;;;;5132605;27;19911;-83
2021/12/28 06:23:34;;;;;;;;;;;8.50;99.90;;;;;;5133697;27;19957;-84
2021/12/28 06:25:59;;;;;;;;;;;8.50;99.90;;;;;;5132940;27;20400;-84
2021/12/28 06:28:25;;;;;;;;;;;8.50;99.90;;;;;;5115026;27;19957;-85
2021/12/28 06:30:53;;;;;;;;;;;8.50;99.90;;;;;;5133175;27;19918;-84
2021/12/28 06:33:19;;;;;;;;;;;8.50;99.90;;;;;;5132680;27;19911;-83
2021/12/28 06:35:45;;;;;;;;;;;8.40;99.90;;;;;;5133583;28;19912;-82
2021/12/28 06:38:10;;;;;;;;;;;8.50;99.90;;;;;;5132752;28;19952;-82
2021/12/28 06:40:36;;;;;;;;;;;8.50;99.90;;;;;;5152039;27;19911;-81
2021/12/28 06:43:02;;;;;;;;;;;8.40;99.90;;;;;;5161043;27;19899;-80
2021/12/28 06:45:27;;;;;;;;;;;8.40;99.90;;;;;;5130223;27;19912;-79
2021/12/28 06:47:53;;;;;;;;;;;8.40;99.90;;;;;;5140794;27;19950;-78
2021/12/28 06:50:18;;;;;;;;;;;8.40;99.90;;;;;;5138602;27;20365;-76
2021/12/28 06:52:44;;;;;;;;;;;8.40;99.90;;;;;;5137034;27;19920;-76
2021/12/28 06:55:10;;;;;;;;;;;8.40;99.90;;;;;;5136806;27;19915;-76
2021/12/28 06:57:36;;;;;;;;;;;8.40;99.90;;;;;;5137834;27;19931;-75
2021/12/28 07:00:04;;;;;;;;;;;8.40;99.90;;;;;;5136599;27;19990;-75
2021/12/28 07:02:30;;;;;;;;;;;8.30;99.90;;;;;;5137358;27;19957;-75
2021/12/28 07:04:55;;;;;;;;;;;8.30;99.90;;;;;;5136940;27;19908;-75
2021/12/28 07:07:21;;;;;;;;;;;8.30;99.90;;;;;;5118375;27;20368;-74
2021/12/28 07:09:47;;;;;;;;;;;8.30;99.90;;;;;;5137230;27;19911;-74
2021/12/28 07:12:12;;;;;;;;;;;8.30;99.90;;;;;;5136234;27;20280;-74
2021/12/28 07:14:38;;;;;;;;;;;8.30;99.90;;;;;;5137146;27;20375;-74
2021/12/28 07:17:04;;;;;;;;;;;8.30;99.90;;;;;;5136343;27;19912;-74
2021/12/28 07:19:29;;;;;;;;;;;8.20;99.90;;;;;;5136975;27;20001;-74
2021/12/28 07:21:55;;;;;;;;;;;8.20;99.90;;;;;;5137054;27;19933;-75
2021/12/28 07:24:21;;;;;;;;;;;8.10;99.90;;;;;;5136272;27;19973;-74
2021/12/28 07:26:47;;;;;;;;;;;8.10;99.90;;;;;;5136936;27;19921;-74
2021/12/28 07:29:13;;;;;;;;;;;8.10;99.90;;;;;;5135637;27;20287;-74
2021/12/28 07:31:38;;;;;;;;;;;8.00;99.90;;;;;;5136853;27;19916;-74
2021/12/28 07:34:04;;;;;;;;;;;8.00;99.90;;;;;;5135637;27;19969;-74
2021/12/28 07:36:30;;;;;;;;;;;8.00;99.90;;;;;;5136777;27;20001;-74
2021/12/28 07:38:56;;;;;;;;;;;8.00;99.90;;;;;;5118469;27;20002;-74
2021/12/28 07:41:21;;;;;;;;;;;7.90;99.90;;;;;;5117144;27;20316;-75
2021/12/28 07:43:47;;;;;;;;;;;7.90;99.90;;;;;;5137024;27;19915;-74
2021/12/28 07:46:13;;;;;;;;;;;7.90;99.90;;;;;;5136204;27;19973;-75
2021/12/28 07:48:39;;;;;;;;;;;7.90;99.90;;;;;;5136628;27;20379;-75
2021/12/28 07:51:04;;;;;;;;;;;7.90;99.90;;;;;;5135831;27;20348;-76
2021/12/28 07:53:30;;;;;;;;;;;7.90;99.90;;;;;;5136078;27;19963;-75
2021/12/28 07:55:57;;;;;;;;;;;7.90;99.90;;;;;;5136523;27;19914;-75
2021/12/28 07:58:24;;;;;;;;;;;7.90;99.90;;;;;;5135349;27;20283;-75
2021/12/28 08:00:50;;;;;;;;;;;7.80;99.90;;;;;;5136284;27;19911;-75
2021/12/28 08:03:15;;;;;;;;;;;7.80;99.90;;;;;;5135576;27;20375;-76
2021/12/28 08:05:41;;;;;;;;;;;7.80;99.90;;;;;;5136186;27;19951;-77
2021/12/28 08:08:06;;;;;;;;;;;7.80;99.90;;;;;;5116930;27;19911;-75
2021/12/28 08:10:32;;;;;;;;;;;7.80;99.90;;;;;;5135749;27;19961;-76
2021/12/28 08:12:58;;;;;;;;;;;7.70;99.90;;;;;;5117743;27;19946;-75
2021/12/28 08:15:24;;;;;;;;;;;7.70;99.90;;;;;;5135255;27;20329;-75
2021/12/28 08:17:50;;;;;;;;;;;7.70;99.90;;;;;;5136106;27;19908;-75
2021/12/28 08:20:16;;;;;;;;;;;7.70;99.90;;;;;;5134903;27;20272;-75
2021/12/28 08:22:42;;;;;;;;;;;7.60;99.90;;;;;;5135670;27;19990;-74
2021/12/28 08:25:09;;;;;;;;;;;7.70;99.90;;;;;;5134995;27;19908;-75
2021/12/28 08:27:35;;;;;;;;;;;7.60;99.90;;;;;;5135868;27;19914;-75
2021/12/28 08:30:01;;;;;;;;;;;7.60;99.90;;;;;;5135748;27;19908;-75
2021/12/28 08:32:26;;;;;;;;;;;7.60;99.90;;;;;;5134854;27;19926;-74
2021/12/28 08:34:52;;;;;;;;;;;7.60;99.90;;;;;;5135600;27;19907;-74
2021/12/28 08:37:17;;;;;;;;;;;7.60;99.90;;;;;;5134869;27;19953;-75
2021/12/28 08:39:43;;;;;;;;;;;7.60;99.90;;;;;;5117454;27;19907;-74
2021/12/28 08:42:09;;;;;;;;;;;7.60;99.90;;;;;;5134741;27;19907;-75
2021/12/28 08:44:35;;;;;;;;;;;7.60;99.90;;;;;;5135474;27;19907;-75
2021/12/28 08:47:01;;;;;;;;;;;7.60;99.90;;;;;;5135459;27;20333;-75
2021/12/28 08:49:27;;;;;;;;;;;7.60;99.90;;;;;;5134689;27;19915;-75
2021/12/28 08:51:53;;;;;;;;;;;7.60;99.90;;;;;;5134959;27;19919;-74
2021/12/28 08:54:19;;;;;;;;;;;7.60;99.90;;;;;;5134416;27;19985;-74
2021/12/28 08:56:45;;;;;;;;;;;7.60;99.90;;;;;;5135338;27;19912;-74
2021/12/28 08:59:11;;;;;;;;;;;7.60;99.90;;;;;;5134386;27;19907;-74
2021/12/28 09:01:37;;;;;;;;;;;7.60;99.90;;;;;;5134691;27;19912;-75
2021/12/28 09:04:02;;;;;;;;;;;7.60;99.90;;;;;;5134724;27;19907;-75
2021/12/28 09:06:28;;;;;;;;;;;7.60;99.90;;;;;;5133818;27;20356;-74
2021/12/28 09:08:54;;;;;;;;;;;7.60;99.90;;;;;;5135048;27;20279;-75
2021/12/28 09:11:20;;;;;;;;;;;7.60;99.90;;;;;;5134041;27;19911;-75
2021/12/28 09:13:45;;;;;;;;;;;7.60;99.90;;;;;;5144071;27;19918;-75
2021/12/28 09:16:11;;;;;;;;;;;7.60;99.90;;;;;;5146861;27;19915;-75
2021/12/28 09:18:37;;;;;;;;;;;7.60;99.90;;;;;;5133546;27;19912;-76
2021/12/28 09:21:02;;;;;;;;;;;7.60;99.90;;;;;;5144853;27;19907;-73
2021/12/28 09:23:29;;;;;;;;;;;7.60;99.90;;;;;;5141605;27;19947;-74
2021/12/28 09:25:54;;;;;;;;;;;7.60;99.90;;;;;;5143216;27;19914;-74
2021/12/28 09:28:21;;;;;;;;;;;7.60;99.90;;;;;;5144346;27;19907;-74
2021/12/28 09:30:46;;;;;;;;;;;7.60;99.90;;;;;;5147216;27;19915;-74
2021/12/28 09:33:12;;;;;;;;;;;7.60;99.90;;;;;;5143368;27;19915;-75
2021/12/28 09:35:38;;;;;;;;;;;7.60;99.90;;;;;;5147827;27;19907;-75
2021/12/28 09:38:04;;;;;;;;;;;7.70;99.90;;;;;;5136601;27;19914;-75
2021/12/28 09:40:31;;;;;;;;;;;7.70;99.90;;;;;;5153883;27;19907;-74
2021/12/28 09:42:57;;;;;;;;;;;7.60;99.90;;;;;;5154877;27;19911;-74
2021/12/28 09:45:23;;;;;;;;;;;7.60;99.90;;;;;;5153695;27;19997;-75
2021/12/28 09:47:48;;;;;;;;;;;7.60;99.90;;;;;;5154370;27;19993;-75
2021/12/28 09:50:18;;;;;;;;;;;7.70;99.90;;;;;;5135402;27;19994;-75
2021/12/28 09:52:47;;;;;;;;;;;7.70;99.90;;;;;;5153814;27;20146;-74
2021/12/28 09:55:13;;;;;;;;;;;7.70;99.90;;;;;;5153726;27;19911;-75
2021/12/28 09:57:40;;;;;;;;;;;7.70;99.90;;;;;;5154984;27;20232;-75
2021/12/28 10:00:07;;;;;;;;;;;7.70;99.90;;;;;;5154493;27;19907;-75
2021/12/28 10:02:35;;;;;;;;;;;7.70;99.90;;;;;;5154016;27;20327;-75
2021/12/28 10:05:11;;;;;;;;;;;7.70;99.90;;;;;;5154188;27;20390;-75
2021/12/28 10:07:42;;;;;;;;;;;7.70;99.90;;;;;;5154171;27;19911;-75
2021/12/28 10:10:08;;;;;;;;;;;7.70;99.90;;;;;;5154384;27;19946;-77
2021/12/28 10:12:38;;;;;;;;;;;7.80;99.90;;;;;;5153389;27;20386;-74
2021/12/28 10:15:09;;;;;;;;;;;7.80;99.90;;;;;;5154438;27;19911;-74
2021/12/28 10:17:35;;;;;;;;;;;7.80;99.90;;;;;;5153473;27;19998;-74
2021/12/28 10:20:04;;;;;;;;;;;7.80;99.90;;;;;;5153917;27;19975;-75
2021/12/28 10:22:30;;;;;;;;;;;7.80;99.90;;;;;;5152927;27;20035;-74
2021/12/28 10:24:57;;;;;;;;;;;7.80;99.90;;;;;;5153623;27;20370;-75
2021/12/28 10:27:24;;;;;;;;;;;7.80;99.90;;;;;;5152554;27;19914;-74
2021/12/28 10:29:50;;;;;;;;;;;7.80;99.90;;;;;;5153519;27;19966;-75
2021/12/28 10:32:24;;;;;;;;;;;7.80;99.90;;;;;;5152694;27;19975;-75
2021/12/28 10:34:54;;;;;;;;;;;7.90;99.90;;;;;;5153979;27;19914;-74
2021/12/28 10:37:25;;;;;;;;;;;7.80;99.90;;;;;;5152907;27;19907;-74
2021/12/28 10:39:53;;;;;;;;;;;7.90;99.90;;;;;;5153784;27;19907;-74
2021/12/28 10:42:37;;;;;;;;;;;7.90;99.90;;;;;;5153042;27;20010;-74
2021/12/28 10:45:03;;;;;;;;;;;7.90;99.90;;;;;;5153955;27;19914;-75
2021/12/28 10:47:29;;;;;;;;;;;7.90;99.90;;;;;;5152950;27;19918;-75
2021/12/28 10:49:56;;;;;;;;;;;7.90;99.90;;;;;;5153877;27;19907;-75
2021/12/28 10:52:25;;;;;;;;;;;7.90;99.90;;;;;;5152744;27;20262;-75
2021/12/28 10:54:51;;;;;;;;;;;8.00;99.90;;;;;;5154046;27;19998;-74
2021/12/28 10:57:16;;;;;;;;;;;8.00;99.90;;;;;;5152964;27;20351;-75
2021/12/28 10:59:42;;;;;;;;;;;8.00;99.90;;;;;;5153963;27;19907;-75
2021/12/28 11:02:07;;;;;;;;;;;8.00;99.90;;;;;;5135218;27;19994;-73
2021/12/28 11:04:35;;;;;;;;;;;8.00;99.90;;;;;;5152910;27;19913;-74
2021/12/28 11:07:03;;;;;;;;;;;8.10;99.90;;;;;;5153264;27;20005;-74
2021/12/28 11:09:29;;;;;;;;;;;8.10;99.90;;;;;;5134437;27;19908;-74
2021/12/28 11:11:55;;;;;;;;;;;8.10;99.90;;;;;;5153352;27;20039;-74
2021/12/28 11:14:22;;;;;;;;;;;8.10;99.90;;;;;;5152842;27;19918;-75
2021/12/28 11:16:52;;;;;;;;;;;8.10;99.90;;;;;;5153493;27;19911;-74
2021/12/28 11:19:25;;;;;;;;;;;8.10;99.90;;;;;;5152506;27;19907;-75
2021/12/28 11:21:54;;;;;;;;;;;8.20;99.90;;;;;;5153419;27;20430;-74
2021/12/28 11:24:20;;;;;;;;;;;8.20;99.90;;;;;;5152441;27;19928;-75
2021/12/28 11:26:50;;;;;;;;;;;8.30;99.90;;;;;;5153151;27;19993;-72
2021/12/28 11:29:20;;;;;;;;;;;8.30;99.90;;;;;;5155881;27;19907;-76
2021/12/28 11:31:50;;;;;;;;;;;8.40;99.90;;;;;;5138745;27;20268;-74
2021/12/28 11:34:28;;;;;;;;;;;8.40;99.90;;;;;;5156337;27;19980;-76
2021/12/28 11:36:55;;;;;;;;;;;8.40;99.90;;;;;;5157285;27;19914;-74
2021/12/28 11:39:23;;;;;;;;;;;8.40;99.90;;;;;;5156530;27;19907;-73
2021/12/28 11:41:49;;;;;;;;;;;8.40;99.90;;;;;;5157313;27;19911;-73
2021/12/28 11:44:17;;;;;;;;;;;8.30;99.90;;;;;;5156876;27;19954;-75
2021/12/28 11:46:44;;;;;;;;;;;8.30;99.90;;;;;;5156961;27;19959;-74
2021/12/28 11:49:12;;;;;;;;;;;8.40;99.90;;;;;;5157123;27;19907;-73
2021/12/28 11:51:38;;;;;;;;;;;8.40;99.90;;;;;;5155987;27;19933;-75
2021/12/28 11:54:06;;;;;;;;;;;8.40;99.90;;;;;;5156950;27;19923;-74
2021/12/28 11:56:34;;;;;;;;;;;8.50;99.90;;;;;;5157024;27;19942;-75
2021/12/28 11:59:04;;;;;;;;;;;8.50;99.90;;;;;;5157205;27;20367;-75
2021/12/28 12:01:50;;;;;;;;;;;8.50;99.90;;;;;;5160127;27;19907;-74
2021/12/28 12:04:34;;;;;;;;;;;8.60;99.90;;;;;;5145394;27;19994;-75
2021/12/28 12:07:14;;;;;;;;;;;8.70;99.90;;;;;;5158518;27;19990;-76
2021/12/28 12:09:49;;;;;;;;;;;8.70;99.90;;;;;;5155911;27;20009;-73
2021/12/28 12:12:19;;;;;;;;;;;8.70;99.90;;;;;;5156553;27;20005;-73
2021/12/28 12:14:51;;;;;;;;;;;8.80;99.90;;;;;;5156557;27;19911;-74
2021/12/28 12:17:26;;;;;;;;;;;8.80;99.90;;;;;;5156099;27;19951;-76
2021/12/28 12:19:52;;;;;;;;;;;8.80;99.90;;;;;;5156497;27;19990;-73
2021/12/28 12:22:29;;;;;;;;;;;8.80;99.90;;;;;;5156111;27;19907;-76
2021/12/28 12:24:56;;;;;;;;;;;8.80;99.90;;;;;;5156362;27;19914;-74
2021/12/28 12:27:36;;;;;;;;;;;8.90;99.90;;;;;;5155475;27;19907;-74
2021/12/28 12:30:02;;;;;;;;;;;8.80;99.90;;;;;;5156287;27;19914;-74
2021/12/28 12:32:47;;;;;;;;;;;8.80;99.90;;;;;;5155428;27;19911;-74
2021/12/28 12:35:27;;;;;;;;;;;8.80;99.90;;;;;;5155923;27;19956;-73
2021/12/28 12:37:53;;;;;;;;;;;8.80;99.90;;;;;;5156135;27;19914;-73
2021/12/28 12:40:19;;;;;;;;;;;8.70;99.90;;;;;;5135879;27;19986;-77
2021/12/28 12:43:04;;;;;;;;;;;8.80;99.90;;;;;;5155408;27;19907;-74
2021/12/28 12:46:04;;;;;;;;;;;8.80;99.90;;;;;;5155029;27;20279;-74
2021/12/28 12:48:29;;;;;;;;;;;8.80;99.90;;;;;;5090161;27;20010;-73
2021/12/28 12:51:15;;;;;;;;;;;8.70;99.90;;;;;;5143717;27;20002;-73
2021/12/28 12:53:42;;;;;;;;;;;8.70;99.90;;;;;;5127854;27;20492;-73
2021/12/28 12:56:11;;;;;;;;;;;8.70;99.90;;;;;;5137954;27;19911;-73
2021/12/28 12:58:37;;;;;;;;;;;8.70;99.90;;;;;;5115758;27;20287;-73
2021/12/28 13:01:03;;;;;;;;;;;8.70;99.90;;;;;;5134965;27;19907;-73
2021/12/28 13:03:35;;;;;;;;;;;8.60;99.90;;;;;;5133989;27;19921;-74
2021/12/28 13:06:01;;;;;;;;;;;8.60;99.90;;;;;;5117283;27;19911;-73
2021/12/28 13:08:26;;;;;;;;;;;8.60;99.90;;;;;;5134097;27;19957;-74
2021/12/28 13:10:52;;;;;;;;;;;8.60;99.90;;;;;;5134561;27;20280;-73
2021/12/28 13:13:18;;;;;;;;;;;8.60;99.90;;;;;;5116278;27;19908;-74
2021/12/28 13:15:43;;;;;;;;;;;8.60;99.90;;;;;;5133817;27;19956;-72
2021/12/28 13:18:09;;;;;;;;;;;8.70;99.90;;;;;;5134297;27;19907;-73
2021/12/28 13:20:35;;;;;;;;;;;8.70;99.90;;;;;;5133289;27;20392;-73
2021/12/28 13:23:02;;;;;;;;;;;8.70;99.90;;;;;;5134512;27;19994;-74
2021/12/28 13:25:28;;;;;;;;;;;8.70;99.90;;;;;;5133444;27;20313;-72
2021/12/28 13:27:54;;;;;;;;;;;8.70;99.90;;;;;;5134282;27;19999;-73
2021/12/28 13:30:23;;;;;;;;;;;8.70;99.90;;;;;;5134305;27;19915;-72
2021/12/28 13:32:50;;;;;;;;;;;8.70;99.90;;;;;;5134003;27;19920;-73
2021/12/28 13:35:25;;;;;;;;;;;8.70;99.90;;;;;;5134036;27;19908;-73
2021/12/28 13:38:01;;;;;;;;;;;8.70;99.90;;;;;;5134337;27;19907;-75
2021/12/28 13:40:44;;;;;;;;;;;8.80;99.90;;;;;;5133200;27;19918;-73
2021/12/28 13:43:13;;;;;;;;;;;8.80;99.90;;;;;;5134159;27;19907;-74
2021/12/28 13:45:44;;;;;;;;;;;8.80;99.90;;;;;;5114790;27;19907;-73
2021/12/28 13:48:10;;;;;;;;;;;8.80;99.90;;;;;;5134045;27;19914;-73
2021/12/28 13:50:36;;;;;;;;;;;8.80;99.90;;;;;;5132689;27;19960;-74
2021/12/28 13:53:02;;;;;;;;;;;8.80;99.90;;;;;;5134226;27;19927;-73
2021/12/28 13:55:32;;;;;;;;;;;8.70;99.90;;;;;;5132854;27;19942;-75
2021/12/28 13:57:58;;;;;;;;;;;8.80;99.90;;;;;;5133869;27;20364;-74
2021/12/28 14:00:26;;;;;;;;;;;8.80;99.90;;;;;;5133489;27;19908;-74
2021/12/28 14:02:52;;;;;;;;;;;8.80;99.90;;;;;;5133908;27;19907;-73
2021/12/28 14:05:18;;;;;;;;;;;8.70;99.90;;;;;;5114893;27;19907;-75
2021/12/28 14:07:44;;;;;;;;;;;8.70;99.90;;;;;;5131875;27;19907;-74
2021/12/28 14:10:10;;;;;;;;;;;8.60;99.90;;;;;;5133301;27;19908;-73
2021/12/28 14:12:35;;;;;;;;;;;8.60;99.90;;;;;;5132361;27;19915;-73
2021/12/28 14:15:01;;;;;;;;;;;8.60;99.90;;;;;;5132889;27;19914;-73
2021/12/28 14:17:27;;;;;;;;;;;8.60;99.90;;;;;;5133405;27;19919;-73
2021/12/28 14:19:55;;;;;;;;;;;8.60;99.90;;;;;;5133314;27;19959;-73
2021/12/28 14:22:21;;;;;;;;;;;8.60;99.90;;;;;;5133464;27;19914;-74
2021/12/28 14:24:50;;;;;;;;;;;8.60;99.90;;;;;;5132299;27;19994;-74
2021/12/28 14:27:21;;;;;;;;;;;8.60;99.90;;;;;;5133079;27;20284;-74
2021/12/28 14:29:57;;;;;;;;;;;8.60;99.90;;;;;;5132446;27;19907;-74
2021/12/28 14:32:31;;;;;;;;;;;8.60;99.90;;;;;;5133135;27;19956;-73
2021/12/28 14:35:00;;;;;;;;;;;8.70;99.90;;;;;;5133491;27;19994;-73